Time;durP1;ratioP1;P1;durP2;ratioP2;P2;SDS_P1;SDS_P2;PMS_P1;PMS_P2;Temp;Humidity;BMP_temperature;BMP_pressure;BME280_temperature;BME280_humidity;BME280_pressure;Samples;Min_cycle;Max_cycle;Signal;HPM_P1;HPM_P2
2021/01/28 00:00:08;;;;;;;1.00;0.90;;;20.00;20.90;;;;;;5056099;28;20383;-51
2021/01/28 00:02:34;;;;;;;1.17;1.05;;;20.00;20.90;;;;;;5055939;28;20923;-51
2021/01/28 00:05:00;;;;;;;1.70;1.30;;;20.00;20.90;;;;;;5055879;28;20171;-50
2021/01/28 00:07:25;;;;;;;1.33;1.00;;;20.00;20.90;;;;;;5054232;28;20206;-52
2021/01/28 00:09:53;;;;;;;1.80;0.93;;;20.00;20.90;;;;;;5056261;28;20437;-51
2021/01/28 00:12:19;;;;;;;1.10;1.00;;;20.00;20.90;;;;;;5037740;28;20689;-52
2021/01/28 00:14:45;;;;;;;1.35;1.05;;;20.00;20.90;;;;;;5055855;28;20143;-52
2021/01/28 00:17:11;;;;;;;1.37;1.07;;;20.00;20.90;;;;;;5055751;28;20174;-52
2021/01/28 00:19:39;;;;;;;0.97;0.70;;;20.00;20.90;;;;;;5037976;28;20190;-51
2021/01/28 00:22:05;;;;;;;0.82;0.73;;;20.00;20.40;;;;;;5038146;28;20380;-53
2021/01/28 00:24:31;;;;;;;0.97;0.87;;;20.00;20.90;;;;;;5055196;28;20166;-51
2021/01/28 00:26:57;;;;;;;1.27;1.17;;;20.00;20.90;;;;;;5055776;28;20489;-51
2021/01/28 00:29:23;;;;;;;1.57;0.77;;;20.00;20.90;;;;;;5055444;28;20241;-51
2021/01/28 00:31:49;;;;;;;1.43;1.00;;;20.00;20.90;;;;;;5055762;28;20527;-52
2021/01/28 00:34:14;;;;;;;0.80;0.80;;;20.00;20.90;;;;;;5054111;28;20155;-52
2021/01/28 00:36:41;;;;;;;1.37;1.00;;;20.00;20.90;;;;;;5055337;28;20148;-50
2021/01/28 00:39:07;;;;;;;1.00;0.90;;;20.00;20.90;;;;;;5055179;28;20246;-51
2021/01/28 00:41:33;;;;;;;1.10;0.83;;;20.00;20.90;;;;;;5055850;28;20183;-51
2021/01/28 00:43:58;;;;;;;1.03;0.90;;;20.00;20.90;;;;;;5070713;28;20412;-50
2021/01/28 00:46:24;;;;;;;0.90;0.70;;;20.00;20.90;;;;;;5055406;28;20156;-51
2021/01/28 00:48:50;;;;;;;1.47;1.07;;;20.00;20.90;;;;;;5053837;28;20248;-51
2021/01/28 00:51:16;;;;;;;0.95;0.80;;;20.00;20.90;;;;;;5055138;28;20159;-50
2021/01/28 00:53:42;;;;;;;0.60;0.60;;;20.00;20.90;;;;;;5054650;28;20170;-51
2021/01/28 00:56:08;;;;;;;1.40;1.00;;;20.00;21.00;;;;;;5053924;28;20739;-50
2021/01/28 00:58:34;;;;;;;1.00;0.85;;;20.00;21.00;;;;;;5055166;28;20171;-50
2021/01/28 01:01:01;;;;;;;1.03;0.93;;;20.00;20.90;;;;;;5051728;28;20178;-50
2021/01/28 01:03:28;;;;;;;1.38;1.25;;;20.00;20.90;;;;;;5054912;28;20162;-51
2021/01/28 01:05:54;;;;;;;1.27;1.10;;;20.00;20.90;;;;;;5054834;28;20155;-51
2021/01/28 01:08:27;;;;;;;1.40;1.00;;;20.00;20.90;;;;;;5054496;28;20190;-50
2021/01/28 01:10:55;;;;;;;1.45;1.35;;;20.00;20.90;;;;;;5054847;28;20151;-50
2021/01/28 01:13:24;;;;;;;1.27;0.80;;;20.00;21.00;;;;;;5054679;28;20682;-50
2021/01/28 01:15:50;;;;;;;2.22;1.20;;;20.00;21.00;;;;;;5054902;28;20155;-51
2021/01/28 01:18:18;;;;;;;1.10;0.93;;;20.00;21.00;;;;;;5054341;28;20163;-50
2021/01/28 01:20:45;;;;;;;0.90;0.80;;;20.00;21.00;;;;;;5036784;28;20418;-50
2021/01/28 01:23:11;;;;;;;1.30;0.80;;;20.00;21.00;;;;;;5054362;28;20167;-51
2021/01/28 01:25:40;;;;;;;1.33;0.95;;;20.00;21.00;;;;;;5054513;28;20178;-51
2021/01/28 01:28:06;;;;;;;1.33;1.23;;;20.00;21.00;;;;;;5054372;28;20195;-51
2021/01/28 01:30:32;;;;;;;1.17;0.90;;;20.00;21.00;;;;;;5036598;28;20181;-52
2021/01/28 01:32:58;;;;;;;0.90;0.73;;;20.00;21.00;;;;;;5036357;28;20413;-52
2021/01/28 01:35:25;;;;;;;1.00;0.80;;;19.90;20.90;;;;;;5054110;28;20160;-51
2021/01/28 01:37:53;;;;;;;0.80;0.70;;;20.00;21.00;;;;;;5053804;28;20406;-51
2021/01/28 01:40:24;;;;;;;0.60;0.60;;;20.00;21.00;;;;;;5054285;28;20156;-51
2021/01/28 01:42:50;;;;;;;2.05;0.85;;;20.00;21.00;;;;;;5036298;28;20198;-51
2021/01/28 01:45:25;;;;;;;1.08;0.98;;;20.00;21.00;;;;;;5053847;28;20736;-51
2021/01/28 01:47:55;;;;;;;1.50;1.08;;;19.90;21.00;;;;;;5053909;28;20193;-50
2021/01/28 01:50:35;;;;;;;0.90;0.73;;;19.90;21.00;;;;;;5054211;28;20163;-50
2021/01/28 01:53:03;;;;;;;1.45;0.77;;;19.90;21.00;;;;;;5035647;28;20170;-51
2021/01/28 01:55:31;;;;;;;1.00;0.80;;;19.90;21.00;;;;;;5054123;28;20155;-50
2021/01/28 01:58:01;;;;;;;1.02;0.80;;;19.90;21.00;;;;;;5053922;28;20617;-51
2021/01/28 02:00:28;;;;;;;0.80;0.70;;;19.90;21.00;;;;;;5053780;28;20175;-50
2021/01/28 02:03:00;;;;;;;0.90;0.77;;;19.90;21.00;;;;;;5053707;28;20242;-51
2021/01/28 02:05:32;;;;;;;1.25;0.80;;;19.90;21.00;;;;;;5053787;28;20159;-50
2021/01/28 02:07:58;;;;;;;1.25;0.90;;;19.90;21.00;;;;;;5053313;28;20187;-51
2021/01/28 02:10:25;;;;;;;1.10;0.98;;;19.90;21.00;;;;;;5053792;28;20189;-51
2021/01/28 02:12:54;;;;;;;1.20;1.10;;;19.90;21.10;;;;;;5053607;28;20220;-50
2021/01/28 02:15:21;;;;;;;1.10;0.70;;;19.90;21.10;;;;;;5053743;28;20201;-51
2021/01/28 02:17:54;;;;;;;0.73;0.73;;;19.90;21.10;;;;;;5053611;28;20163;-50
2021/01/28 02:20:39;;;;;;;1.17;1.08;;;19.90;21.10;;;;;;5053679;28;20186;-51
2021/01/28 02:23:43;;;;;;;0.73;0.60;;;19.90;21.10;;;;;;5035467;28;20174;-51
2021/01/28 02:26:09;;;;;;;1.25;1.15;;;19.90;21.10;;;;;;5050526;28;20191;-51
2021/01/28 02:28:35;;;;;;;0.82;0.82;;;19.90;21.10;;;;;;5053058;28;20194;-51
2021/01/28 02:31:03;;;;;;;1.07;0.83;;;19.90;21.10;;;;;;5051901;28;20167;-51
2021/01/28 02:33:45;;;;;;;1.15;1.05;;;19.90;21.10;;;;;;5053296;28;20534;-50
2021/01/28 02:36:30;;;;;;;0.85;0.85;;;19.90;21.10;;;;;;5054193;28;20163;-52
2021/01/28 02:38:56;;;;;;;1.00;0.70;;;19.90;21.30;;;;;;5037869;28;20213;-51
2021/01/28 02:41:27;;;;;;;0.80;0.80;;;19.90;21.10;;;;;;5054592;28;20163;-53
2021/01/28 02:43:53;;;;;;;0.77;0.60;;;19.90;21.30;;;;;;5054136;28;20162;-51
2021/01/28 02:46:20;;;;;;;0.80;0.70;;;19.90;21.10;;;;;;5054638;28;20170;-50
2021/01/28 02:48:49;;;;;;;2.05;1.20;;;19.90;21.70;;;;;;5036307;28;20237;-51
2021/01/28 02:51:15;;;;;;;0.80;0.80;;;19.90;21.10;;;;;;5054437;28;20155;-52
2021/01/28 02:53:44;;;;;;;1.00;0.80;;;19.90;21.10;;;;;;5035425;28;20187;-51
2021/01/28 02:56:11;;;;;;;0.70;0.50;;;19.90;21.10;;;;;;5054307;28;20229;-51
2021/01/28 02:58:36;;;;;;;1.20;1.10;;;19.90;21.30;;;;;;5053041;28;20150;-51
2021/01/28 03:01:04;;;;;;;1.37;1.00;;;19.90;21.10;;;;;;5052887;28;20186;-52
2021/01/28 03:03:30;;;;;;;1.10;0.82;;;19.90;21.10;;;;;;5053118;28;20167;-51
2021/01/28 03:05:56;;;;;;;1.00;0.90;;;19.90;21.10;;;;;;5053104;28;20160;-51
2021/01/28 03:08:24;;;;;;;0.70;0.70;;;19.90;21.10;;;;;;5052776;28;20791;-51
2021/01/28 03:10:50;;;;;;;0.82;0.70;;;19.90;21.10;;;;;;5053272;28;20155;-51
2021/01/28 03:13:16;;;;;;;0.80;0.57;;;19.90;21.10;;;;;;5052948;28;20207;-51
2021/01/28 03:15:42;;;;;;;0.70;0.60;;;19.90;21.10;;;;;;5053219;28;20163;-51
2021/01/28 03:18:12;;;;;;;0.93;0.93;;;19.90;21.10;;;;;;5053090;28;20634;-51
2021/01/28 03:20:41;;;;;;;1.55;1.00;;;19.90;21.10;;;;;;5052901;28;20151;-51
2021/01/28 03:23:08;;;;;;;0.70;0.70;;;19.90;21.10;;;;;;5052488;28;20198;-51
2021/01/28 03:25:35;;;;;;;0.82;0.82;;;19.90;21.10;;;;;;5053026;28;20156;-51
2021/01/28 03:28:00;;;;;;;0.77;0.77;;;19.90;21.10;;;;;;5052946;28;20187;-51
2021/01/28 03:30:32;;;;;;;1.00;0.90;;;19.90;21.10;;;;;;5052866;28;20155;-51
2021/01/28 03:32:59;;;;;;;0.95;0.85;;;20.00;21.20;;;;;;5052862;28;20178;-50
2021/01/28 03:35:26;;;;;;;1.05;0.90;;;19.90;21.10;;;;;;5053224;28;20158;-51
2021/01/28 03:37:52;;;;;;;1.23;0.80;;;19.90;21.10;;;;;;5052430;28;20174;-51
2021/01/28 03:40:21;;;;;;;0.98;0.90;;;20.00;21.20;;;;;;5053535;28;20163;-51
2021/01/28 03:42:47;;;;;;;1.15;0.70;;;20.00;21.20;;;;;;5056629;28;20212;-51
2021/01/28 03:45:13;;;;;;;0.80;0.73;;;20.00;21.20;;;;;;5056480;28;20155;-51
2021/01/28 03:47:42;;;;;;;0.90;0.77;;;20.00;21.70;;;;;;5056316;28;20183;-51
2021/01/28 03:50:14;;;;;;;0.85;0.80;;;20.00;21.20;;;;;;5056480;28;20150;-51
2021/01/28 03:52:43;;;;;;;0.98;0.77;;;19.90;21.10;;;;;;5055980;28;20212;-51
2021/01/28 03:55:09;;;;;;;1.35;0.60;;;20.00;21.20;;;;;;5056554;28;20160;-50
2021/01/28 03:57:35;;;;;;;0.80;0.80;;;20.00;21.10;;;;;;5056152;28;20182;-51
2021/01/28 04:00:01;;;;;;;0.90;0.90;;;20.00;21.20;;;;;;5056118;28;20175;-51
2021/01/28 04:02:26;;;;;;;1.20;1.10;;;20.00;21.10;;;;;;5055857;28;20199;-51
2021/01/28 04:04:52;;;;;;;0.90;0.70;;;20.00;21.10;;;;;;5056160;28;20404;-51
2021/01/28 04:07:17;;;;;;;1.13;1.03;;;20.00;21.10;;;;;;5055479;28;20169;-52
2021/01/28 04:09:44;;;;;;;2.07;0.73;;;20.00;21.10;;;;;;5055947;28;20218;-51
2021/01/28 04:12:09;;;;;;;0.90;0.80;;;20.00;21.10;;;;;;5055998;28;20217;-51
2021/01/28 04:14:35;;;;;;;0.70;0.70;;;20.00;21.10;;;;;;5056317;28;20161;-51
2021/01/28 04:17:01;;;;;;;0.83;0.83;;;20.00;21.10;;;;;;5056001;28;20167;-51
2021/01/28 04:19:27;;;;;;;1.20;1.10;;;20.00;21.10;;;;;;5054465;28;20421;-51
2021/01/28 04:21:52;;;;;;;1.10;1.00;;;20.00;21.10;;;;;;5055750;28;20384;-51
2021/01/28 04:24:18;;;;;;;1.83;1.07;;;20.00;21.10;;;;;;5055516;28;20209;-51
2021/01/28 04:26:44;;;;;;;0.87;0.80;;;20.00;21.10;;;;;;5055909;28;20523;-51
2021/01/28 04:29:10;;;;;;;0.80;0.73;;;20.00;21.10;;;;;;5055654;28;20183;-50
2021/01/28 04:31:36;;;;;;;0.80;0.80;;;20.00;21.10;;;;;;5055684;28;20173;-51
2021/01/28 04:34:03;;;;;;;0.80;0.80;;;20.00;21.10;;;;;;5055452;28;20402;-51
2021/01/28 04:36:29;;;;;;;0.80;0.70;;;20.00;21.10;;;;;;5055465;28;20242;-50
2021/01/28 04:38:55;;;;;;;0.98;0.88;;;20.00;21.10;;;;;;5055055;28;20175;-51
2021/01/28 04:41:22;;;;;;;1.83;0.90;;;20.00;21.10;;;;;;5037539;28;20194;-50
2021/01/28 04:43:50;;;;;;;1.08;0.82;;;20.00;21.10;;;;;;5055149;28;20372;-50
2021/01/28 04:46:43;;;;;;;0.85;0.65;;;20.00;21.10;;;;;;5055274;28;20249;-51
2021/01/28 04:49:13;;;;;;;1.73;0.90;;;20.00;21.10;;;;;;5055140;28;20179;-50
2021/01/28 04:51:44;;;;;;;1.02;0.90;;;20.00;21.60;;;;;;5055060;28;20155;-50
2021/01/28 04:54:32;;;;;;;0.77;0.77;;;20.00;21.00;;;;;;5054362;28;20150;-50
2021/01/28 04:57:05;;;;;;;0.75;0.63;;;20.00;21.00;;;;;;5055167;28;20154;-50
2021/01/28 04:59:34;;;;;;;0.80;0.80;;;20.00;21.00;;;;;;5055052;28;20503;-51
2021/01/28 05:02:03;;;;;;;1.15;0.70;;;20.00;21.00;;;;;;5055071;28;20329;-51
2021/01/28 05:04:53;;;;;;;1.08;0.98;;;20.00;21.00;;;;;;5054838;28;20194;-51
2021/01/28 05:07:31;;;;;;;0.70;0.50;;;20.00;21.00;;;;;;5054254;28;20174;-51
2021/01/28 05:10:25;;;;;;;0.93;0.80;;;20.00;21.00;;;;;;5054981;28;20155;-51
2021/01/28 05:12:59;;;;;;;1.35;1.17;;;20.00;21.00;;;;;;5048557;28;20222;-50
2021/01/28 05:15:27;;;;;;;0.63;0.63;;;20.00;21.00;;;;;;5053402;28;20159;-51
2021/01/28 05:18:18;;;;;;;0.70;0.70;;;20.00;21.00;;;;;;5054508;28;20178;-51
2021/01/28 05:20:45;;;;;;;0.68;0.63;;;20.00;21.00;;;;;;5053742;28;20179;-51
2021/01/28 05:23:33;;;;;;;0.85;0.75;;;20.00;21.00;;;;;;5054018;28;20552;-51
2021/01/28 05:26:00;;;;;;;0.82;0.82;;;20.00;21.00;;;;;;5054671;28;20672;-51
2021/01/28 05:28:30;;;;;;;0.73;0.73;;;20.00;21.00;;;;;;5054258;28;20187;-51
2021/01/28 05:30:58;;;;;;;0.90;0.65;;;20.10;21.10;;;;;;5053136;28;20178;-51
2021/01/28 05:33:41;;;;;;;1.38;0.85;;;19.20;20.40;;;;;;5054478;28;20179;-50
2021/01/28 05:36:17;;;;;;;0.95;0.80;;;20.10;21.10;;;;;;5054085;28;20209;-51
2021/01/28 05:38:46;;;;;;;1.00;1.00;;;20.10;21.00;;;;;;5053789;28;20159;-50
2021/01/28 05:41:26;;;;;;;0.80;0.70;;;20.10;21.00;;;;;;5054135;28;20159;-51
2021/01/28 05:43:52;;;;;;;1.25;0.70;;;20.10;21.10;;;;;;5054073;28;20159;-51
2021/01/28 05:46:25;;;;;;;1.08;0.98;;;20.00;21.00;;;;;;5054131;28;20182;-51
2021/01/28 05:49:11;;;;;;;0.60;0.60;;;20.10;21.10;;;;;;5054063;28;20221;-51
2021/01/28 05:51:42;;;;;;;0.82;0.70;;;20.10;21.00;;;;;;5053959;28;20179;-51
2021/01/28 05:54:19;;;;;;;0.90;0.80;;;20.10;21.00;;;;;;5053433;28;20159;-51
2021/01/28 05:56:54;;;;;;;0.90;0.60;;;20.10;21.00;;;;;;5035752;28;20622;-51
2021/01/28 05:59:40;;;;;;;0.60;0.60;;;20.10;21.00;;;;;;5053610;28;20608;-50
2021/01/28 06:02:46;;;;;;;2.35;0.93;;;20.10;21.00;;;;;;5053850;28;20162;-51
2021/01/28 06:05:30;;;;;;;1.10;0.88;;;20.10;21.00;;;;;;5035031;28;20185;-51
2021/01/28 06:08:52;;;;;;;0.98;0.70;;;20.10;21.00;;;;;;5052926;28;20183;-50
2021/01/28 06:11:28;;;;;;;0.73;0.73;;;20.10;21.10;;;;;;4992207;28;20180;-51
2021/01/28 06:14:20;;;;;;;1.20;0.98;;;20.10;21.00;;;;;;4991711;28;20213;-50
2021/01/28 06:17:04;;;;;;;1.08;0.80;;;20.10;21.00;;;;;;5027149;28;20194;-51
2021/01/28 06:19:46;;;;;;;0.80;0.73;;;20.10;21.00;;;;;;5033425;28;20166;-50
2021/01/28 06:22:30;;;;;;;0.90;0.70;;;20.10;21.00;;;;;;5033217;28;20272;-50
2021/01/28 06:25:28;;;;;;;1.00;0.93;;;20.10;21.00;;;;;;5033414;28;20157;-51
2021/01/28 06:28:30;;;;;;;1.00;0.90;;;20.10;21.00;;;;;;5033416;28;20187;-51
2021/01/28 06:31:43;;;;;;;0.60;0.60;;;20.10;21.00;;;;;;5033313;28;20155;-51
2021/01/28 06:34:25;;;;;;;1.35;0.90;;;20.10;21.00;;;;;;4989541;28;20183;-51
2021/01/28 06:37:36;;;;;;;1.13;0.70;;;20.10;21.00;;;;;;5033414;28;20155;-50
2021/01/28 06:40:06;;;;;;;0.90;0.70;;;20.10;21.00;;;;;;5022478;28;20199;-50
2021/01/28 06:42:45;;;;;;;0.73;0.73;;;20.10;21.00;;;;;;5033234;28;20615;-50
2021/01/28 06:45:18;;;;;;;0.80;0.70;;;20.10;21.00;;;;;;5033514;28;20535;-51
2021/01/28 06:48:20;;;;;;;1.40;0.55;;;20.10;21.00;;;;;;5033084;28;20198;-51
2021/01/28 06:50:53;;;;;;;0.85;0.70;;;20.10;21.00;;;;;;5033334;28;20448;-51
2021/01/28 06:53:40;;;;;;;1.00;0.77;;;20.10;21.00;;;;;;5032660;28;20210;-51
2021/01/28 06:56:20;;;;;;;1.10;1.00;;;20.10;21.00;;;;;;5033198;28;20164;-51
2021/01/28 06:59:13;;;;;;;1.58;0.90;;;20.10;21.00;;;;;;5033144;28;20215;-52
2021/01/28 07:02:01;;;;;;;1.00;0.80;;;20.10;21.00;;;;;;5033183;28;20313;-51
2021/01/28 07:05:01;;;;;;;1.00;0.70;;;20.10;21.00;;;;;;4971766;28;20194;-52
2021/01/28 07:07:30;;;;;;;1.13;1.02;;;20.10;21.00;;;;;;5001395;28;20611;-51
2021/01/28 07:10:01;;;;;;;1.10;0.63;;;20.10;21.00;;;;;;5032888;28;20154;-51
2021/01/28 07:12:38;;;;;;;1.02;0.85;;;20.10;21.00;;;;;;5036488;28;20218;-51
2021/01/28 07:15:05;;;;;;;0.90;0.50;;;20.10;21.00;;;;;;5052827;28;20457;-51
2021/01/28 07:17:37;;;;;;;1.27;0.60;;;20.10;21.00;;;;;;5056650;28;20308;-51
2021/01/28 07:20:13;;;;;;;1.23;1.10;;;20.10;21.00;;;;;;5056714;28;20158;-50
2021/01/28 07:22:41;;;;;;;0.80;0.77;;;20.10;21.00;;;;;;5037986;28;20155;-51
2021/01/28 07:25:36;;;;;;;1.10;1.00;;;20.10;21.00;;;;;;5056491;28;20155;-51
2021/01/28 07:28:04;;;;;;;1.52;0.90;;;20.10;21.00;;;;;;5043423;28;20268;-50
2021/01/28 07:30:36;;;;;;;0.80;0.80;;;20.20;21.00;;;;;;5056499;28;20159;-51
2021/01/28 07:33:02;;;;;;;0.88;0.55;;;20.20;20.50;;;;;;5056194;28;20537;-51
2021/01/28 07:35:35;;;;;;;0.60;0.60;;;20.20;21.00;;;;;;5038489;28;20167;-51
2021/01/28 07:38:40;;;;;;;1.20;1.00;;;20.20;21.00;;;;;;5055747;28;20155;-50
2021/01/28 07:41:08;;;;;;;0.80;0.80;;;20.20;21.00;;;;;;5055477;28;20316;-51
2021/01/28 07:43:43;;;;;;;1.05;0.98;;;20.20;21.00;;;;;;5055886;28;20155;-51
2021/01/28 07:46:23;;;;;;;0.65;0.65;;;20.20;21.00;;;;;;5055968;28;20163;-51
2021/01/28 07:49:18;;;;;;;1.42;0.90;;;20.20;21.00;;;;;;5055738;28;20630;-51
2021/01/28 07:51:48;;;;;;;1.00;0.90;;;20.20;21.00;;;;;;5055323;28;20243;-52
2021/01/28 07:54:26;;;;;;;1.45;0.93;;;20.20;20.90;;;;;;5051394;28;20261;-51
2021/01/28 07:57:01;;;;;;;1.10;0.70;;;20.20;20.90;;;;;;5050105;28;20175;-51
2021/01/28 07:59:52;;;;;;;1.00;0.82;;;20.20;20.90;;;;;;5030634;28;20174;-51
2021/01/28 08:02:33;;;;;;;1.00;0.80;;;20.20;20.90;;;;;;5026126;28;20187;-51
2021/01/28 08:05:06;;;;;;;0.95;0.93;;;20.20;20.90;;;;;;5053975;28;20190;-51
2021/01/28 08:07:34;;;;;;;0.85;0.77;;;20.20;20.90;;;;;;5050604;28;20210;-50
2021/01/28 08:10:30;;;;;;;1.00;0.90;;;20.20;20.80;;;;;;5043662;28;20193;-51
2021/01/28 08:13:19;;;;;;;1.10;0.93;;;20.20;20.90;;;;;;5043214;28;20288;-51
2021/01/28 08:16:06;;;;;;;0.88;0.80;;;20.20;20.80;;;;;;5038616;28;20201;-51
2021/01/28 08:18:37;;;;;;;0.80;0.70;;;20.20;21.30;;;;;;5046217;28;20174;-51
2021/01/28 08:21:11;;;;;;;0.65;0.60;;;20.20;20.80;;;;;;5049170;28;20591;-50
2021/01/28 08:23:40;;;;;;;1.65;0.80;;;20.20;20.80;;;;;;5052120;28;20224;-51
2021/01/28 08:26:13;;;;;;;1.08;0.80;;;20.20;20.80;;;;;;5051905;28;20166;-51
2021/01/28 08:28:42;;;;;;;1.08;0.98;;;20.20;20.80;;;;;;5044098;28;20217;-51
2021/01/28 08:31:23;;;;;;;0.77;0.73;;;20.20;20.80;;;;;;5049208;28;20197;-50
2021/01/28 08:33:56;;;;;;;1.13;0.75;;;20.20;20.80;;;;;;5051312;28;20617;-51
2021/01/28 08:36:24;;;;;;;0.90;0.70;;;20.30;20.90;;;;;;5051541;28;20237;-51
2021/01/28 08:39:06;;;;;;;0.85;0.70;;;20.30;20.80;;;;;;5050393;28;20182;-51
2021/01/28 08:41:32;;;;;;;1.15;1.05;;;20.30;20.90;;;;;;5041669;28;20189;-51
2021/01/28 08:44:20;;;;;;;1.00;0.90;;;20.30;20.90;;;;;;5046883;28;20180;-50
2021/01/28 08:46:46;;;;;;;0.80;0.80;;;20.30;20.80;;;;;;5051159;28;20183;-51
2021/01/28 08:49:20;;;;;;;0.93;0.80;;;20.30;20.80;;;;;;5050323;28;20194;-51
2021/01/28 08:51:54;;;;;;;1.58;0.80;;;20.30;20.80;;;;;;5051509;28;20174;-50
2021/01/28 08:54:25;;;;;;;1.30;0.90;;;20.30;20.80;;;;;;5048171;28;20190;-51
2021/01/28 08:56:56;;;;;;;0.85;0.82;;;20.30;20.80;;;;;;5053380;28;20235;-50
2021/01/28 08:59:30;;;;;;;0.88;0.70;;;20.30;20.80;;;;;;5050536;28;20213;-51
2021/01/28 09:01:56;;;;;;;1.17;0.95;;;20.30;20.80;;;;;;5052185;28;20259;-50
2021/01/28 09:04:26;;;;;;;1.27;1.10;;;20.30;20.70;;;;;;5032069;28;20183;-50
2021/01/28 09:06:52;;;;;;;2.00;1.00;;;20.30;20.70;;;;;;5050736;28;20167;-51
2021/01/28 09:09:20;;;;;;;1.08;0.85;;;20.30;20.70;;;;;;5053013;28;20700;-51
2021/01/28 09:11:47;;;;;;;1.08;0.98;;;20.30;20.70;;;;;;5049226;28;20173;-51
2021/01/28 09:14:34;;;;;;;0.90;0.90;;;20.30;20.70;;;;;;5006093;28;20698;-50
2021/01/28 09:17:24;;;;;;;1.23;0.85;;;20.30;20.70;;;;;;5028433;28;20655;-51
2021/01/28 09:19:59;;;;;;;1.20;1.10;;;20.30;20.70;;;;;;5029683;28;20187;-51
2021/01/28 09:22:34;;;;;;;1.05;0.95;;;20.30;20.70;;;;;;5019086;28;20167;-52
2021/01/28 09:25:03;;;;;;;1.25;1.02;;;20.30;20.70;;;;;;5026691;28;20186;-51
2021/01/28 09:27:34;;;;;;;1.25;1.13;;;20.30;20.70;;;;;;5028153;28;20253;-51
2021/01/28 09:30:20;;;;;;;1.13;0.90;;;20.30;20.60;;;;;;5025435;28;20168;-51
2021/01/28 09:32:47;;;;;;;1.30;1.00;;;20.30;20.60;;;;;;5015531;28;20190;-51
2021/01/28 09:35:23;;;;;;;1.25;0.90;;;20.30;20.60;;;;;;5011302;28;20187;-51
2021/01/28 09:38:14;;;;;;;0.82;0.80;;;20.30;20.60;;;;;;5029458;28;20307;-51
2021/01/28 09:40:43;;;;;;;0.90;0.70;;;20.40;20.60;;;;;;5030034;28;20206;-50
2021/01/28 09:43:33;;;;;;;1.35;1.15;;;20.40;20.50;;;;;;5030473;28;20183;-52
2021/01/28 09:46:17;;;;;;;0.80;0.80;;;20.40;20.50;;;;;;5021985;28;20182;-51
2021/01/28 09:48:44;;;;;;;0.95;0.90;;;20.40;20.50;;;;;;5028613;28;20700;-51
2021/01/28 09:51:11;;;;;;;1.40;0.90;;;20.40;20.50;;;;;;5014357;28;20175;-51
2021/01/28 09:53:56;;;;;;;1.23;0.90;;;20.40;20.50;;;;;;5003626;28;20175;-51
2021/01/28 09:56:22;;;;;;;1.38;1.27;;;20.40;20.50;;;;;;5025178;28;20648;-51
2021/01/28 09:58:48;;;;;;;0.70;0.70;;;20.40;20.50;;;;;;5009909;28;20282;-53
2021/01/28 10:01:13;;;;;;;1.57;0.90;;;20.40;20.50;;;;;;5031111;28;20562;-51
2021/01/28 10:03:39;;;;;;;1.70;1.10;;;20.40;20.50;;;;;;5030812;28;20638;-51
2021/01/28 10:06:05;;;;;;;2.00;1.10;;;20.40;20.50;;;;;;5029321;28;20568;-51
2021/01/28 10:08:30;;;;;;;1.00;0.70;;;20.40;20.50;;;;;;5029043;28;20207;-51
2021/01/28 10:10:56;;;;;;;1.17;1.00;;;20.40;20.50;;;;;;5028779;28;20250;-50
2021/01/28 10:13:25;;;;;;;1.77;1.13;;;20.40;20.50;;;;;;5027838;28;20227;-50
2021/01/28 10:15:50;;;;;;;0.98;0.88;;;20.40;20.50;;;;;;5028367;28;20216;-50
2021/01/28 10:18:16;;;;;;;0.87;0.87;;;20.40;20.50;;;;;;5012874;28;20188;-50
2021/01/28 10:20:43;;;;;;;0.70;0.70;;;20.40;20.50;;;;;;5030281;28;20211;-50
2021/01/28 10:23:10;;;;;;;0.85;0.73;;;20.40;20.50;;;;;;5027138;28;20175;-51
2021/01/28 10:25:35;;;;;;;2.78;1.20;;;20.40;20.50;;;;;;5031407;28;20258;-50
2021/01/28 10:28:01;;;;;;;3.40;1.07;;;20.40;20.50;;;;;;5030936;28;20290;-51
2021/01/28 10:30:27;;;;;;;0.80;0.80;;;20.40;20.50;;;;;;5025217;28;20531;-51
2021/01/28 10:32:54;;;;;;;0.90;0.73;;;20.40;20.50;;;;;;5002599;28;20433;-51
2021/01/28 10:35:23;;;;;;;1.98;0.80;;;20.40;20.50;;;;;;5027839;28;20432;-51
2021/01/28 10:37:49;;;;;;;1.30;0.95;;;20.40;20.50;;;;;;5028938;28;20246;-51
2021/01/28 10:40:16;;;;;;;1.27;1.05;;;20.40;20.50;;;;;;5028654;28;20207;-50
2021/01/28 10:42:43;;;;;;;1.05;0.88;;;20.40;20.50;;;;;;5031224;28;20175;-51
2021/01/28 10:45:22;;;;;;;1.00;0.90;;;20.40;20.50;;;;;;5021907;28;20199;-50
2021/01/28 10:47:48;;;;;;;0.80;0.70;;;20.40;20.50;;;;;;5029539;28;20199;-50
2021/01/28 10:50:15;;;;;;;1.30;0.90;;;20.40;20.60;;;;;;4980922;28;20650;-50
2021/01/28 10:52:41;;;;;;;1.02;0.93;;;20.50;20.60;;;;;;4996571;28;20203;-51
2021/01/28 10:55:08;;;;;;;0.80;0.80;;;20.50;20.60;;;;;;5024558;28;20536;-51
2021/01/28 10:57:35;;;;;;;0.70;0.70;;;20.50;20.60;;;;;;5008907;28;20177;-50
2021/01/28 11:00:01;;;;;;;1.20;0.80;;;20.50;20.60;;;;;;5033470;28;20226;-50
2021/01/28 11:02:27;;;;;;;2.25;0.95;;;20.50;20.60;;;;;;5016536;28;20199;-51
2021/01/28 11:04:52;;;;;;;1.20;0.90;;;20.50;20.60;;;;;;5032468;28;20211;-51
2021/01/28 11:07:18;;;;;;;0.90;0.80;;;20.50;20.60;;;;;;5033030;28;20533;-51
2021/01/28 11:09:44;;;;;;;1.40;0.90;;;20.50;20.60;;;;;;5035657;28;20671;-51
2021/01/28 11:12:10;;;;;;;0.90;0.80;;;20.60;20.70;;;;;;5017498;28;20290;-51
2021/01/28 11:14:36;;;;;;;0.80;0.70;;;20.60;20.80;;;;;;5034819;28;20172;-52
2021/01/28 11:17:02;;;;;;;3.42;1.02;;;20.60;20.70;;;;;;5034023;28;20806;-53
2021/01/28 11:19:28;;;;;;;0.60;0.50;;;20.60;20.70;;;;;;5035740;28;20179;-51
2021/01/28 11:21:54;;;;;;;3.23;0.60;;;20.60;20.70;;;;;;5026730;28;20172;-50
2021/01/28 11:24:20;;;;;;;1.27;1.00;;;20.60;20.70;;;;;;5032374;28;20182;-51
2021/01/28 11:26:45;;;;;;;0.80;0.80;;;20.60;20.70;;;;;;5032601;28;20164;-51
2021/01/28 11:29:11;;;;;;;1.00;0.90;;;20.60;20.60;;;;;;5033526;28;20428;-51
2021/01/28 11:31:37;;;;;;;1.00;0.90;;;20.60;20.70;;;;;;5021171;28;20623;-51
2021/01/28 11:34:04;;;;;;;1.17;0.82;;;20.60;20.70;;;;;;5032262;28;20401;-51
2021/01/28 11:36:30;;;;;;;0.80;0.73;;;20.60;20.70;;;;;;5030651;28;20194;-50
2021/01/28 11:38:56;;;;;;;0.80;0.80;;;20.60;20.70;;;;;;5025257;28;20258;-51
2021/01/28 11:41:21;;;;;;;0.93;0.83;;;20.70;20.70;;;;;;5033807;28;20266;-52
2021/01/28 11:43:47;;;;;;;1.20;1.00;;;20.70;20.70;;;;;;5031169;28;20647;-51
2021/01/28 11:46:13;;;;;;;1.47;1.00;;;20.70;20.70;;;;;;5033975;28;20179;-51
2021/01/28 11:48:38;;;;;;;1.20;0.87;;;20.80;20.60;;;;;;5032552;28;20203;-51
2021/01/28 11:51:04;;;;;;;0.93;0.80;;;20.80;20.50;;;;;;5031362;28;20287;-50
2021/01/28 11:53:30;;;;;;;1.10;0.90;;;20.80;20.40;;;;;;5032041;28;20171;-50
2021/01/28 11:55:55;;;;;;;1.47;0.93;;;20.80;20.40;;;;;;5033162;28;20176;-51
2021/01/28 11:58:22;;;;;;;6.07;1.00;;;20.80;20.40;;;;;;5015356;28;20530;-50
2021/01/28 12:00:48;;;;;;;1.08;0.73;;;20.80;20.40;;;;;;5034691;28;20180;-51
2021/01/28 12:03:14;;;;;;;1.33;0.83;;;20.80;20.40;;;;;;5031760;28;20183;-51
2021/01/28 12:05:40;;;;;;;0.97;0.80;;;20.80;20.60;;;;;;5025014;28;20416;-50
2021/01/28 12:08:06;;;;;;;0.80;0.80;;;20.90;20.40;;;;;;5025443;28;20458;-51
2021/01/28 12:10:33;;;;;;;1.33;1.07;;;20.90;20.40;;;;;;5012644;28;20692;-52
2021/01/28 12:12:59;;;;;;;0.70;0.60;;;20.90;20.30;;;;;;5042345;28;20520;-50
2021/01/28 12:15:25;;;;;;;1.33;0.90;;;20.90;20.20;;;;;;5048749;28;20182;-50
2021/01/28 12:17:52;;;;;;;0.70;0.70;;;21.00;20.20;;;;;;5055300;28;20262;-50
2021/01/28 12:20:21;;;;;;;1.25;0.80;;;21.00;20.10;;;;;;5035546;28;20177;-51
2021/01/28 12:22:47;;;;;;;1.80;1.10;;;21.10;20.10;;;;;;5050645;28;20167;-51
2021/01/28 12:25:13;;;;;;;0.90;0.77;;;21.10;20.00;;;;;;5052826;28;20680;-51
2021/01/28 12:27:39;;;;;;;1.00;0.90;;;21.10;20.00;;;;;;5035311;28;20185;-51
2021/01/28 12:30:07;;;;;;;1.55;1.10;;;21.10;19.90;;;;;;5051555;28;20422;-51
2021/01/28 12:32:34;;;;;;;1.25;1.00;;;21.10;19.90;;;;;;5050608;28;20182;-52
2021/01/28 12:34:59;;;;;;;0.73;0.73;;;21.00;19.80;;;;;;5052311;28;20167;-51
2021/01/28 12:37:25;;;;;;;1.50;1.00;;;21.20;19.90;;;;;;5050697;28;20182;-52
2021/01/28 12:39:51;;;;;;;0.77;0.70;;;21.20;19.80;;;;;;5016181;28;20685;-51
2021/01/28 12:42:16;;;;;;;1.23;0.90;;;21.20;19.80;;;;;;5033782;28;20172;-50
2021/01/28 12:44:42;;;;;;;1.30;0.90;;;21.20;19.80;;;;;;5051411;28;20179;-50
2021/01/28 12:47:08;;;;;;;1.10;0.90;;;21.30;19.80;;;;;;5011138;28;20301;-51
2021/01/28 12:49:34;;;;;;;1.50;0.80;;;21.20;19.70;;;;;;5049895;28;20431;-51
2021/01/28 12:51:59;;;;;;;1.10;0.83;;;21.30;19.70;;;;;;5050150;28;20206;-51
2021/01/28 12:54:25;;;;;;;1.63;1.00;;;21.30;19.70;;;;;;5051525;28;20221;-52
2021/01/28 12:56:51;;;;;;;0.77;0.60;;;21.30;19.80;;;;;;5034061;28;20504;-51
2021/01/28 12:59:17;;;;;;;0.90;0.80;;;21.30;19.80;;;;;;5032502;28;20183;-55
2021/01/28 13:01:43;;;;;;;0.80;0.60;;;21.20;19.90;;;;;;5035241;28;20174;-51
2021/01/28 13:04:08;;;;;;;0.80;0.80;;;21.30;19.80;;;;;;5052815;28;20262;-52
2021/01/28 13:06:34;;;;;;;1.00;0.80;;;21.20;20.10;;;;;;5027696;28;20187;-51
2021/01/28 13:09:00;;;;;;;0.93;0.83;;;21.20;19.80;;;;;;5033284;28;20190;-51